Time;durP1;ratioP1;P1;durP2;ratioP2;P2;SDS_P1;SDS_P2;PMS_P1;PMS_P2;Temp;Humidity;BMP_temperature;BMP_pressure;BME280_temperature;BME280_humidity;BME280_pressure;Samples;Min_cycle;Max_cycle;Signal;HPM_P1;HPM_P2
2022/08/18 00:01:42;;;;;;;5.47;4.77;;;17.50;99.90;;;;;;5034681;28;20198;-81
2022/08/18 00:04:09;;;;;;;4.40;4.00;;;17.50;99.90;;;;;;5038819;28;20710;-81
2022/08/18 00:06:35;;;;;;;5.13;4.37;;;17.40;99.90;;;;;;5040444;28;20178;-81
2022/08/18 00:09:03;;;;;;;6.73;4.90;;;17.40;99.90;;;;;;5040948;28;20229;-81
2022/08/18 00:11:31;;;;;;;4.90;4.37;;;17.40;99.90;;;;;;5038940;28;20228;-81
2022/08/18 00:13:57;;;;;;;4.47;4.07;;;17.40;99.90;;;;;;5037495;28;20604;-80
2022/08/18 00:16:23;;;;;;;5.10;4.60;;;17.40;99.90;;;;;;5038887;28;20174;-81
2022/08/18 00:18:49;;;;;;;4.97;4.13;;;17.50;99.90;;;;;;5037006;28;20182;-80
2022/08/18 00:21:16;;;;;;;5.43;4.30;;;17.50;99.90;;;;;;5037190;28;20277;-81
2022/08/18 00:23:42;;;;;;;4.70;4.17;;;17.50;99.90;;;;;;5038550;28;20171;-81
2022/08/18 00:26:07;;;;;;;5.03;4.50;;;17.50;99.90;;;;;;5038707;28;20181;-81
2022/08/18 00:28:33;;;;;;;5.80;4.40;;;17.50;99.90;;;;;;5037934;28;20201;-80
2022/08/18 00:30:59;;;;;;;5.10;4.60;;;17.50;99.90;;;;;;5037230;28;20249;-80
2022/08/18 00:33:25;;;;;;;8.13;4.33;;;17.40;99.90;;;;;;5037960;28;20526;-81
2022/08/18 00:35:50;;;;;;;5.57;4.57;;;17.40;99.90;;;;;;5036763;28;20184;-80
2022/08/18 00:38:16;;;;;;;4.73;4.33;;;17.40;99.90;;;;;;5051818;28;20193;-79
2022/08/18 00:40:47;;;;;;;5.03;4.50;;;17.40;99.90;;;;;;5059998;28;20194;-81
2022/08/18 00:43:18;;;;;;;7.80;4.83;;;17.40;99.90;;;;;;5043740;28;20182;-81
2022/08/18 00:45:45;;;;;;;5.40;4.53;;;17.40;99.90;;;;;;5038561;28;20186;-81
2022/08/18 00:48:12;;;;;;;5.07;4.43;;;17.40;99.90;;;;;;5038576;28;20221;-81
2022/08/18 00:50:38;;;;;;;5.90;4.07;;;;;;;;;;5038211;28;20249;-81
2022/08/18 00:53:10;;;;;;;5.53;4.60;;;17.50;99.90;;;;;;5038239;28;20249;-81
2022/08/18 00:55:38;;;;;;;5.03;4.53;;;17.40;99.90;;;;;;5037154;28;20182;-81
2022/08/18 00:58:17;;;;;;;5.70;4.93;;;17.40;99.90;;;;;;5036801;28;20644;-81
2022/08/18 01:00:44;;;;;;;5.60;5.00;;;17.40;99.90;;;;;;5036526;28;20181;-81
2022/08/18 01:03:15;;;;;;;5.07;4.57;;;17.30;99.90;;;;;;5037958;28;20187;-81
2022/08/18 01:06:08;;;;;;;5.63;4.77;;;17.30;99.90;;;;;;5037321;28;20186;-81
2022/08/18 01:08:34;;;;;;;5.30;4.40;;;17.00;99.90;;;;;;5037262;28;20574;-81
2022/08/18 01:11:01;;;;;;;5.73;4.50;;;17.30;99.90;;;;;;5038911;28;20221;-81
2022/08/18 01:13:31;;;;;;;5.87;4.67;;;17.30;99.90;;;;;;5037935;28;20185;-81
2022/08/18 01:15:58;;;;;;;6.13;5.03;;;17.20;99.90;;;;;;5036371;28;20265;-81
2022/08/18 01:24:14;;;;;;;5.17;4.67;;;17.10;99.90;;;;;;5041146;28;20253;-81
2022/08/18 01:26:48;;;;;;;6.40;5.77;;;17.00;99.90;;;;;;5037693;28;20174;-81
2022/08/18 01:29:14;;;;;;;6.47;5.77;;;17.00;99.90;;;;;;5038302;28;20658;-81
2022/08/18 01:31:48;;;;;;;6.97;5.23;;;17.00;99.90;;;;;;5036960;28;20293;-81
2022/08/18 01:34:15;;;;;;;6.37;5.77;;;17.00;99.90;;;;;;5037301;28;20178;-81
2022/08/18 01:36:41;;;;;;;7.00;6.30;;;17.00;99.90;;;;;;5037972;28;20237;-82
2022/08/18 01:39:10;;;;;;;7.23;6.23;;;17.00;99.90;;;;;;5037617;28;20178;-81
2022/08/18 01:41:36;;;;;;;8.17;6.70;;;16.90;99.90;;;;;;5037341;28;20273;-81
2022/08/18 01:44:04;;;;;;;8.03;7.23;;;16.90;99.90;;;;;;5036590;28;20190;-81
2022/08/18 01:46:32;;;;;;;7.10;6.40;;;16.90;99.90;;;;;;5036228;28;20272;-81
2022/08/18 01:48:59;;;;;;;8.20;7.33;;;16.90;99.90;;;;;;5035732;28;20688;-81
2022/08/18 01:51:27;;;;;;;9.43;7.33;;;16.90;99.90;;;;;;5036008;28;20699;-81
2022/08/18 01:53:53;;;;;;;8.03;6.97;;;16.90;99.90;;;;;;5036573;28;20240;-82
2022/08/18 01:56:19;;;;;;;10.57;7.87;;;16.90;99.90;;;;;;5036005;28;20178;-81
2022/08/18 01:58:46;;;;;;;8.47;7.53;;;16.90;99.90;;;;;;5037722;28;20209;-81
2022/08/18 02:01:14;;;;;;;10.77;8.17;;;16.90;99.90;;;;;;5037788;28;20194;-81
2022/08/18 02:03:47;;;;;;;9.67;8.13;;;16.90;99.90;;;;;;5036840;28;20182;-81
2022/08/18 02:06:17;;;;;;;9.20;8.20;;;16.90;99.90;;;;;;5037781;28;20598;-80
2022/08/18 02:08:43;;;;;;;7.77;7.07;;;16.90;99.90;;;;;;5036931;28;20214;-81
2022/08/18 02:11:09;;;;;;;11.53;7.33;;;16.80;99.90;;;;;;5036173;28;20214;-81
2022/08/18 02:13:35;;;;;;;10.03;7.30;;;16.80;99.90;;;;;;5036958;28;20506;-81
2022/08/18 02:16:01;;;;;;;10.40;7.70;;;16.80;99.90;;;;;;5036916;28;20174;-81
2022/08/18 02:18:30;;;;;;;8.13;7.33;;;16.70;99.90;;;;;;5036034;28;20190;-81
2022/08/18 02:21:04;;;;;;;8.87;7.33;;;16.70;99.90;;;;;;5038334;28;20202;-82
2022/08/18 02:23:30;;;;;;;8.03;7.23;;;16.70;99.90;;;;;;5035362;28;20186;-81
2022/08/18 02:25:55;;;;;;;8.97;8.03;;;16.60;99.90;;;;;;5034837;28;20185;-81
2022/08/18 02:28:21;;;;;;;11.60;7.83;;;16.60;99.90;;;;;;5036380;28;20206;-81
2022/08/18 02:30:47;;;;;;;9.20;7.50;;;16.60;99.90;;;;;;5036116;28;20200;-81
2022/08/18 02:33:13;;;;;;;9.37;8.37;;;;;;;;;;5034739;28;20178;-81
2022/08/18 02:35:39;;;;;;;9.03;8.17;;;16.60;99.90;;;;;;5035773;28;20257;-81
2022/08/18 02:38:06;;;;;;;9.07;8.13;;;16.60;99.90;;;;;;5034359;28;20182;-81
2022/08/18 02:40:35;;;;;;;12.10;7.83;;;16.50;99.90;;;;;;5034278;28;20193;-81
2022/08/18 02:43:08;;;;;;;8.73;7.83;;;16.50;99.90;;;;;;5040562;28;20176;-81
2022/08/18 02:45:36;;;;;;;9.07;7.53;;;16.50;99.90;;;;;;5054993;28;20174;-81
2022/08/18 02:48:03;;;;;;;8.10;7.27;;;16.50;99.90;;;;;;5052329;28;20301;-81
2022/08/18 02:50:29;;;;;;;9.17;8.20;;;;;;;;;;5037165;28;20198;-81
2022/08/18 02:52:54;;;;;;;8.83;7.93;;;16.50;99.90;;;;;;5036481;28;20524;-81
2022/08/18 02:55:21;;;;;;;8.00;7.20;;;16.50;99.90;;;;;;5036539;28;20257;-81
2022/08/18 02:57:47;;;;;;;9.27;6.90;;;16.50;99.90;;;;;;5036969;28;20180;-81
2022/08/18 03:00:15;;;;;;;8.30;7.50;;;16.50;99.90;;;;;;5037212;28;20173;-81
2022/08/18 03:02:50;;;;;;;8.10;7.37;;;16.50;99.90;;;;;;5036900;28;20259;-81
2022/08/18 03:05:16;;;;;;;8.47;7.57;;;16.50;99.90;;;;;;5037625;28;20169;-81
2022/08/18 03:07:42;;;;;;;9.47;7.37;;;16.50;99.90;;;;;;5037207;28;20178;-81
2022/08/18 03:10:08;;;;;;;9.23;7.80;;;16.50;99.90;;;;;;5034324;28;20198;-81
2022/08/18 03:12:35;;;;;;;8.77;7.87;;;16.50;99.90;;;;;;5034774;28;20661;-81
2022/08/18 03:15:00;;;;;;;8.87;7.97;;;16.60;99.90;;;;;;5035874;28;20197;-81
2022/08/18 03:17:27;;;;;;;10.27;7.77;;;;;;;;;;5035282;28;20652;-81
2022/08/18 03:19:53;;;;;;;9.87;8.00;;;16.50;99.90;;;;;;5034583;28;20549;-81
2022/08/18 03:22:19;;;;;;;8.83;7.77;;;16.50;99.90;;;;;;5035104;28;20233;-81
2022/08/18 03:24:44;;;;;;;8.97;8.07;;;16.50;99.90;;;;;;5034482;28;20694;-81
2022/08/18 03:27:11;;;;;;;8.93;8.00;;;16.50;99.90;;;;;;5036454;28;20224;-81
2022/08/18 03:29:36;;;;;;;9.70;7.50;;;16.50;99.90;;;;;;5034763;28;20759;-81
2022/08/18 03:32:05;;;;;;;10.67;7.50;;;16.50;99.90;;;;;;5036142;28;20230;-81
2022/08/18 03:34:31;;;;;;;8.03;7.23;;;16.50;99.90;;;;;;5034889;28;20182;-81
2022/08/18 03:36:58;;;;;;;10.20;7.47;;;16.50;99.90;;;;;;5036479;28;20257;-81
2022/08/18 03:39:26;;;;;;;8.13;7.33;;;16.50;99.90;;;;;;5038518;28;20217;-81
2022/08/18 03:41:56;;;;;;;8.73;7.83;;;16.50;99.90;;;;;;5038585;28;20213;-81
2022/08/18 03:44:22;;;;;;;7.90;7.10;;;16.50;99.90;;;;;;5039206;28;20186;-81
2022/08/18 03:46:49;;;;;;;8.03;7.23;;;16.50;99.90;;;;;;5040732;28;20174;-83
2022/08/18 03:49:16;;;;;;;9.10;8.07;;;16.50;99.90;;;;;;5039050;28;20344;-81
2022/08/18 03:51:45;;;;;;;9.47;8.17;;;16.60;99.90;;;;;;5038939;28;20205;-81
2022/08/18 03:54:12;;;;;;;10.63;7.87;;;16.60;99.90;;;;;;5040735;28;20170;-81
2022/08/18 03:56:40;;;;;;;8.07;6.83;;;16.60;99.90;;;;;;5039506;28;20170;-81
2022/08/18 03:59:11;;;;;;;7.97;6.80;;;16.60;99.90;;;;;;5040570;28;20253;-81
2022/08/18 04:01:39;;;;;;;8.10;7.30;;;16.50;99.90;;;;;;5041208;28;20194;-82
2022/08/18 04:04:08;;;;;;;9.57;7.57;;;16.60;99.90;;;;;;5039954;28;20178;-81
2022/08/18 04:06:41;;;;;;;8.87;7.70;;;16.60;99.90;;;;;;5040032;28;20174;-81
2022/08/18 04:09:09;;;;;;;8.17;7.37;;;16.60;99.90;;;;;;5039519;28;20233;-82
2022/08/18 04:11:36;;;;;;;10.23;6.93;;;16.60;99.90;;;;;;5040902;28;20198;-82
2022/08/18 04:14:05;;;;;;;8.43;7.10;;;16.70;99.90;;;;;;5040971;28;20174;-82
2022/08/18 04:16:32;;;;;;;8.83;7.40;;;16.70;99.90;;;;;;5039191;28;20532;-82
2022/08/18 04:19:07;;;;;;;7.87;6.90;;;16.50;99.90;;;;;;5040336;28;20702;-81
2022/08/18 04:21:36;;;;;;;8.23;6.83;;;16.70;99.90;;;;;;5040847;28;20278;-82
2022/08/18 04:24:07;;;;;;;11.73;7.90;;;16.70;99.90;;;;;;5039300;28;20202;-82
2022/08/18 04:26:42;;;;;;;8.80;7.90;;;16.70;99.90;;;;;;5039509;28;20189;-83
2022/08/18 04:29:10;;;;;;;8.37;7.50;;;16.70;99.90;;;;;;5038112;28;20205;-81
2022/08/18 04:31:36;;;;;;;9.40;8.40;;;16.80;99.90;;;;;;5037786;28;20732;-81
2022/08/18 04:34:03;;;;;;;10.43;7.80;;;16.80;99.90;;;;;;5037872;28;20661;-81
2022/08/18 04:36:30;;;;;;;9.70;8.03;;;16.80;99.90;;;;;;5037677;28;20182;-81
2022/08/18 04:38:57;;;;;;;11.80;8.27;;;16.70;99.90;;;;;;5038227;28;20171;-81
2022/08/18 04:41:25;;;;;;;8.27;7.47;;;16.80;99.90;;;;;;5037439;28;20203;-81
2022/08/18 04:43:56;;;;;;;13.63;8.40;;;16.80;99.90;;;;;;5037592;28;20333;-81
2022/08/18 04:46:22;;;;;;;9.03;8.07;;;16.70;99.90;;;;;;5039350;28;20185;-80
2022/08/18 04:48:47;;;;;;;9.40;8.50;;;16.80;99.90;;;;;;5039809;28;20194;-80
2022/08/18 04:51:16;;;;;;;9.63;8.13;;;16.80;99.90;;;;;;5054927;28;20211;-81
2022/08/18 04:53:45;;;;;;;10.13;7.97;;;16.80;99.90;;;;;;5058370;28;20198;-81
2022/08/18 04:56:26;;;;;;;14.43;8.10;;;16.80;99.90;;;;;;5040531;28;20208;-81
2022/08/18 04:58:57;;;;;;;8.90;7.97;;;16.80;99.90;;;;;;5037681;28;20172;-81
2022/08/18 05:01:30;;;;;;;13.60;7.97;;;16.80;99.90;;;;;;5036820;28;20208;-80
2022/08/18 05:03:57;;;;;;;12.27;7.67;;;16.80;99.90;;;;;;5038180;28;20258;-80
2022/08/18 05:06:25;;;;;;;10.60;8.20;;;16.80;99.90;;;;;;5038565;28;20681;-81
2022/08/18 05:08:56;;;;;;;8.73;7.83;;;16.80;99.90;;;;;;5036799;28;20236;-80
2022/08/18 05:11:23;;;;;;;8.80;7.90;;;16.80;99.90;;;;;;5038397;28;20713;-81
2022/08/18 05:13:51;;;;;;;10.20;7.93;;;16.80;99.90;;;;;;5038147;28;20175;-80
2022/08/18 05:16:17;;;;;;;9.50;8.53;;;16.80;99.90;;;;;;5037491;28;20180;-80
2022/08/18 05:18:43;;;;;;;9.93;8.57;;;16.90;99.90;;;;;;5038016;28;20186;-81
2022/08/18 05:21:14;;;;;;;9.50;8.50;;;16.90;99.90;;;;;;5037840;28;20202;-81
2022/08/18 05:23:46;;;;;;;9.27;7.57;;;16.90;99.90;;;;;;5040103;28;20207;-81
2022/08/18 05:26:14;;;;;;;8.30;7.50;;;16.90;99.90;;;;;;5038779;28;20176;-80
2022/08/18 05:28:41;;;;;;;11.60;7.97;;;16.90;99.90;;;;;;5037062;28;20206;-80
2022/08/18 05:31:10;;;;;;;8.93;8.03;;;16.80;99.90;;;;;;5037634;28;20285;-81
2022/08/18 05:33:39;;;;;;;8.23;7.43;;;16.80;99.90;;;;;;5039097;28;20181;-81
2022/08/18 05:36:15;;;;;;;12.03;7.90;;;16.80;99.90;;;;;;5038715;28;20180;-81
2022/08/18 05:39:22;;;;;;;8.30;7.50;;;16.70;99.90;;;;;;5040290;28;20175;-81
2022/08/18 05:41:57;;;;;;;11.03;8.13;;;16.70;99.90;;;;;;5037951;28;20297;-81
2022/08/18 05:44:28;;;;;;;8.47;7.57;;;16.60;99.90;;;;;;5038217;28;20315;-82
2022/08/18 05:47:10;;;;;;;8.80;7.80;;;16.60;99.90;;;;;;5037047;28;20629;-81
2022/08/18 05:49:36;;;;;;;9.47;8.07;;;16.60;99.90;;;;;;5037986;28;20236;-81
2022/08/18 05:52:07;;;;;;;9.10;8.17;;;16.60;99.90;;;;;;5039926;28;20205;-81
2022/08/18 05:57:27;;;;;;;10.80;8.73;;;;;;;;;;5038810;28;20185;-82
2022/08/18 05:59:54;;;;;;;11.60;9.47;;;16.60;99.90;;;;;;5037444;28;20191;-81
2022/08/18 06:02:37;;;;;;;13.23;10.57;;;16.60;99.90;;;;;;5039565;28;20194;-82
2022/08/18 06:05:11;;;;;;;11.87;10.53;;;16.50;99.90;;;;;;5037338;28;20186;-81
2022/08/18 06:07:41;;;;;;;11.73;9.77;;;16.50;99.90;;;;;;5037892;28;20182;-81
2022/08/18 06:10:08;;;;;;;13.93;10.03;;;16.50;99.90;;;;;;5036902;28;20217;-81
2022/08/18 06:12:46;;;;;;;10.40;9.30;;;16.50;99.90;;;;;;5037880;28;20667;-80
2022/08/18 06:15:32;;;;;;;10.37;9.30;;;16.50;99.90;;;;;;5035675;28;20202;-81
2022/08/18 06:17:58;;;;;;;12.30;9.10;;;16.60;99.90;;;;;;5035618;28;20185;-81
2022/08/18 06:20:26;;;;;;;11.80;9.33;;;16.60;99.90;;;;;;5035633;28;20185;-80
2022/08/18 06:23:16;;;;;;;9.83;8.87;;;16.60;99.90;;;;;;5035777;28;20225;-80
2022/08/18 06:26:18;;;;;;;12.27;9.77;;;16.60;99.90;;;;;;5031734;28;20201;-81
2022/08/18 06:28:59;;;;;;;13.73;9.83;;;16.60;99.90;;;;;;5037197;28;20679;-80
2022/08/18 06:31:53;;;;;;;10.93;9.83;;;16.70;99.90;;;;;;5036050;28;20203;-80
2022/08/18 06:34:18;;;;;;;11.30;10.10;;;16.70;99.90;;;;;;5037178;28;20182;-80
2022/08/18 06:37:28;;;;;;;11.80;10.20;;;16.70;99.90;;;;;;5036150;28;20183;-81
2022/08/18 06:39:55;;;;;;;10.63;9.10;;;16.70;99.90;;;;;;5036680;28;20652;-81
2022/08/18 06:42:29;;;;;;;16.50;9.50;;;16.70;99.90;;;;;;5035604;28;20206;-81
2022/08/18 06:45:02;;;;;;;11.97;9.87;;;16.80;99.90;;;;;;5036019;28;20182;-80
2022/08/18 06:47:34;;;;;;;11.07;9.53;;;16.90;99.90;;;;;;5036199;28;20181;-80
2022/08/18 06:50:10;;;;;;;9.20;8.30;;;17.10;99.90;;;;;;5037354;28;20210;-80
2022/08/18 06:52:56;;;;;;;9.60;8.70;;;17.20;99.90;;;;;;5036544;28;20285;-80
2022/08/18 06:55:38;;;;;;;10.20;9.13;;;17.40;99.90;;;;;;5038531;28;20178;-81
2022/08/18 06:58:24;;;;;;;12.07;10.23;;;17.40;99.90;;;;;;5054423;28;20169;-81
2022/08/18 07:00:50;;;;;;;9.10;8.20;;;17.40;99.90;;;;;;5050683;28;20194;-81
2022/08/18 07:03:45;;;;;;;10.00;8.80;;;17.40;99.90;;;;;;5037160;28;20717;-81
2022/08/18 07:06:26;;;;;;;9.63;8.73;;;17.30;99.90;;;;;;5033875;28;20194;-81
2022/08/18 07:08:54;;;;;;;9.03;8.13;;;17.30;99.90;;;;;;5037563;28;20197;-81
2022/08/18 07:11:30;;;;;;;14.17;9.10;;;17.40;99.90;;;;;;5037656;28;20308;-81
2022/08/18 07:14:11;;;;;;;9.57;8.67;;;17.40;99.90;;;;;;5041040;28;20209;-81
2022/08/18 07:16:37;;;;;;;9.50;8.50;;;17.40;99.90;;;;;;5041574;28;20600;-81
2022/08/18 07:19:11;;;;;;;9.77;8.87;;;17.60;99.90;;;;;;5040487;28;20207;-81
2022/08/18 07:21:39;;;;;;;9.37;7.93;;;17.70;99.90;;;;;;5040153;28;20199;-81
2022/08/18 07:24:29;;;;;;;9.93;8.90;;;17.70;99.90;;;;;;5040087;28;20179;-81
2022/08/18 07:27:10;;;;;;;10.90;8.90;;;17.80;99.90;;;;;;5041428;28;20214;-81
2022/08/18 07:29:58;;;;;;;9.90;8.40;;;17.90;99.90;;;;;;5039871;28;20212;-81
2022/08/18 07:32:31;;;;;;;8.23;7.43;;;17.90;99.90;;;;;;5040415;28;20195;-81
2022/08/18 07:34:59;;;;;;;8.50;7.70;;;18.00;99.90;;;;;;5039370;28;20632;-81
2022/08/18 07:38:02;;;;;;;9.43;8.53;;;18.00;99.90;;;;;;5038803;28;20179;-81
2022/08/18 07:40:37;;;;;;;8.57;7.47;;;18.00;99.90;;;;;;5040834;28;20236;-82
2022/08/18 07:43:10;;;;;;;8.57;7.67;;;18.00;99.90;;;;;;5039106;28;20216;-82
2022/08/18 07:45:46;;;;;;;8.70;7.80;;;18.10;99.90;;;;;;5042273;28;20175;-81
2022/08/18 07:48:24;;;;;;;8.60;7.80;;;18.10;99.90;;;;;;5040663;28;20175;-82
2022/08/18 07:51:06;;;;;;;8.97;7.53;;;18.10;99.90;;;;;;5039497;28;20204;-82
2022/08/18 07:53:41;;;;;;;8.47;7.57;;;18.10;99.90;;;;;;5042698;28;20210;-81
2022/08/18 07:56:28;;;;;;;10.87;8.70;;;18.10;99.90;;;;;;5044963;28;20303;-81
2022/08/18 07:59:01;;;;;;;8.97;8.10;;;18.10;99.90;;;;;;5039752;28;20186;-81
2022/08/18 08:01:33;;;;;;;8.33;7.43;;;18.10;99.90;;;;;;5040559;28;20294;-82
2022/08/18 08:04:22;;;;;;;7.83;7.03;;;18.10;99.90;;;;;;5039627;28;20253;-81
2022/08/18 08:07:01;;;;;;;8.33;7.43;;;18.20;99.90;;;;;;5040220;28;20226;-82
2022/08/18 08:10:10;;;;;;;7.43;6.73;;;18.40;99.90;;;;;;5040227;28;20211;-81
2022/08/18 08:12:36;;;;;;;7.90;7.03;;;18.50;99.90;;;;;;5038971;28;20212;-82
2022/08/18 08:15:34;;;;;;;8.50;7.70;;;18.60;99.90;;;;;;5039160;28;20637;-82
2022/08/18 08:18:08;;;;;;;7.40;6.50;;;18.70;99.90;;;;;;5038848;28;20180;-81
2022/08/18 08:20:39;;;;;;;8.00;6.60;;;19.10;99.90;;;;;;5038524;28;20282;-82
2022/08/18 08:23:16;;;;;;;7.63;6.40;;;19.20;99.90;;;;;;5039157;28;20166;-81
2022/08/18 08:26:08;;;;;;;7.37;6.67;;;19.40;99.90;;;;;;5039206;28;20585;-82
2022/08/18 08:29:02;;;;;;;8.37;7.57;;;19.60;99.90;;;;;;5040110;28;20201;-82
2022/08/18 08:31:37;;;;;;;7.17;6.47;;;20.00;99.90;;;;;;5040218;28;20224;-82
2022/08/18 08:34:02;;;;;;;7.37;6.40;;;20.10;99.90;;;;;;5038235;28;20202;-82
2022/08/18 08:36:33;;;;;;;7.93;5.93;;;20.40;99.90;;;;;;5038787;28;20636;-82
2022/08/18 08:39:10;;;;;;;7.97;6.90;;;20.60;99.90;;;;;;5038266;28;20204;-82
2022/08/18 08:41:42;;;;;;;6.67;6.00;;;20.80;99.90;;;;;;5040374;28;20216;-82
2022/08/18 08:44:20;;;;;;;8.93;6.17;;;20.80;99.90;;;;;;5039649;28;20586;-82
2022/08/18 08:47:01;;;;;;;5.90;5.30;;;20.90;99.90;;;;;;5038939;28;20185;-82
2022/08/18 08:49:41;;;;;;;6.40;4.67;;;20.90;99.90;;;;;;5038410;28;20241;-82
2022/08/18 08:52:40;;;;;;;4.27;3.87;;;21.40;99.90;;;;;;5037795;28;20197;-80
2022/08/18 08:55:13;;;;;;;6.27;4.60;;;21.70;99.90;;;;;;5038380;28;20202;-82
2022/08/18 08:57:46;;;;;;;7.50;4.50;;;22.10;99.90;;;;;;5039528;28;20178;-80
2022/08/18 09:00:14;;;;;;;5.23;3.97;;;22.50;99.90;;;;;;5037741;28;20586;-80
2022/08/18 09:02:57;;;;;;;4.53;4.13;;;22.90;99.90;;;;;;5040749;28;20218;-80
2022/08/18 09:05:27;;;;;;;4.93;4.13;;;23.30;99.90;;;;;;5057086;28;20193;-81
2022/08/18 09:08:27;;;;;;;4.90;4.50;;;23.50;99.90;;;;;;5054586;28;20248;-81
2022/08/18 09:11:19;;;;;;;4.17;3.77;;;23.90;99.90;;;;;;5037588;28;20691;-81
2022/08/18 09:13:56;;;;;;;4.03;3.50;;;23.90;99.90;;;;;;5037132;28;20647;-81
2022/08/18 09:16:43;;;;;;;5.27;3.80;;;23.80;99.90;;;;;;5037343;28;20174;-82
2022/08/18 09:19:28;;;;;;;4.73;3.57;;;23.50;99.90;;;;;;5037126;28;20183;-81
2022/08/18 09:22:13;;;;;;;4.30;3.90;;;23.30;99.90;;;;;;5038020;28;20696;-81
2022/08/18 09:24:48;;;;;;;4.30;3.90;;;23.10;99.90;;;;;;5038336;28;20593;-81
2022/08/18 09:27:31;;;;;;;4.63;4.23;;;23.20;99.90;;;;;;5038114;28;20192;-81
2022/08/18 09:30:03;;;;;;;5.43;3.80;;;23.20;99.90;;;;;;5038002;28;20748;-82
2022/08/18 09:32:41;;;;;;;3.90;3.60;;;23.10;99.90;;;;;;5037893;28;20196;-82
2022/08/18 09:35:13;;;;;;;3.43;3.13;;;23.10;99.90;;;;;;5037464;28;20166;-81
2022/08/18 09:41:30;;;;;;;3.90;3.50;;;23.00;99.90;;;;;;5039876;28;20220;-81
2022/08/18 09:43:38;;;;;;;3.87;3.57;;;23.30;99.90;;;;;;5038499;28;20182;-82
2022/08/18 09:46:06;;;;;;;4.50;3.57;;;23.20;99.90;;;;;;5041156;28;20240;-81
2022/08/18 09:48:37;;;;;;;5.13;4.40;;;23.20;99.90;;;;;;5040531;28;20289;-81
2022/08/18 09:51:17;;;;;;;4.43;4.03;;;22.90;99.90;;;;;;5037690;28;20198;-81
2022/08/18 09:53:46;;;;;;;5.83;3.70;;;22.90;99.90;;;;;;5036677;28;20667;-81
2022/08/18 09:56:36;;;;;;;5.27;3.97;;;22.90;99.90;;;;;;5036114;28;20652;-81
2022/08/18 09:59:04;;;;;;;4.27;3.87;;;22.70;99.90;;;;;;5036538;28;20185;-83
2022/08/18 10:01:31;;;;;;;4.50;3.90;;;22.70;99.90;;;;;;5036630;28;20196;-81
2022/08/18 10:04:13;;;;;;;5.00;3.70;;;22.80;99.90;;;;;;5037848;28;20232;-82
2022/08/18 10:06:42;;;;;;;4.67;3.93;;;22.80;99.90;;;;;;5038025;28;20180;-82
2022/08/18 10:09:41;;;;;;;5.13;4.20;;;22.70;99.90;;;;;;5036289;28;20230;-81
2022/08/18 10:12:16;;;;;;;5.23;4.13;;;22.60;99.90;;;;;;5035803;28;20218;-82
2022/08/18 10:15:08;;;;;;;4.43;3.97;;;22.60;99.90;;;;;;5037138;28;20172;-81
2022/08/18 10:18:05;;;;;;;5.77;4.37;;;22.80;99.90;;;;;;5037518;28;20176;-82
2022/08/18 10:21:02;;;;;;;6.07;4.57;;;22.80;99.90;;;;;;5036282;28;20184;-81
2022/08/18 10:24:03;;;;;;;5.20;4.53;;;22.80;99.90;;;;;;5036815;28;20190;-82
2022/08/18 10:26:29;;;;;;;4.50;4.10;;;22.70;99.90;;;;;;5037996;28;20213;-81
2022/08/18 10:28:56;;;;;;;6.00;4.70;;;22.60;99.90;;;;;;5037318;28;20196;-82
2022/08/18 10:31:22;;;;;;;4.57;4.13;;;22.30;99.90;;;;;;5039494;28;20191;-82
2022/08/18 10:33:57;;;;;;;5.80;4.40;;;22.30;99.90;;;;;;5036394;28;20226;-82
2022/08/18 10:36:46;;;;;;;4.80;4.20;;;22.20;99.90;;;;;;5037185;28;20186;-82
2022/08/18 10:39:19;;;;;;;4.40;4.00;;;22.10;99.90;;;;;;5033260;28;20187;-82
2022/08/18 10:42:05;;;;;;;7.57;4.40;;;22.00;99.90;;;;;;5036354;28;20334;-82
2022/08/18 10:44:36;;;;;;;8.10;4.93;;;22.10;99.90;;;;;;5037313;28;20526;-81
2022/08/18 10:47:02;;;;;;;6.10;4.17;;;22.20;99.90;;;;;;5036824;28;20182;-82
2022/08/18 10:49:32;;;;;;;6.63;4.50;;;22.20;99.90;;;;;;5037608;28;20268;-81
2022/08/18 10:52:09;;;;;;;6.00;4.47;;;22.40;99.90;;;;;;5035115;28;20664;-82
2022/08/18 10:54:50;;;;;;;4.50;4.10;;;22.40;99.90;;;;;;5037261;28;20236;-81
2022/08/18 10:57:43;;;;;;;4.80;4.30;;;22.70;99.90;;;;;;5036525;28;20189;-81
2022/08/18 11:00:12;;;;;;;5.93;4.10;;;23.00;99.90;;;;;;5036651;28;20165;-81
2022/08/18 11:02:53;;;;;;;5.80;4.23;;;23.10;99.90;;;;;;5035892;28;20209;-80
2022/08/18 11:05:24;;;;;;;5.27;4.77;;;23.40;99.90;;;;;;5036805;28;20188;-81
2022/08/18 11:07:57;;;;;;;4.50;4.10;;;23.80;99.90;;;;;;5041356;28;20173;-80
2022/08/18 11:10:34;;;;;;;4.60;3.90;;;24.90;99.90;;;;;;5048588;28;20221;-81
2022/08/18 11:13:27;;;;;;;4.63;3.70;;;25.60;99.90;;;;;;5056621;28;20201;-82
2022/08/18 11:16:05;;;;;;;5.60;4.00;;;25.90;99.90;;;;;;5042781;28;20533;-82
2022/08/18 11:18:39;;;;;;;6.17;3.83;;;25.90;99.90;;;;;;5035072;28;20181;-82
2022/08/18 11:21:44;;;;;;;4.83;3.47;;;26.20;99.90;;;;;;5036951;28;20607;-82
2022/08/18 11:24:22;;;;;;;6.00;3.50;;;26.10;99.90;;;;;;5034916;28;20187;-82
2022/08/18 11:26:51;;;;;;;5.57;3.70;;;26.00;99.90;;;;;;5035943;28;20186;-82
2022/08/18 11:29:25;;;;;;;7.37;4.03;;;26.00;99.90;;;;;;5036725;28;20193;-82
2022/08/18 11:31:57;;;;;;;7.60;4.00;;;25.60;99.90;;;;;;5036462;28;20192;-81
2022/08/18 11:34:41;;;;;;;6.37;4.10;;;25.60;99.90;;;;;;5036753;28;20177;-82
2022/08/18 11:37:37;;;;;;;6.37;4.10;;;24.70;99.90;;;;;;5036311;28;20553;-82
2022/08/18 11:40:06;;;;;;;4.63;3.87;;;24.40;99.90;;;;;;5035224;28;20180;-81
2022/08/18 11:42:37;;;;;;;4.87;4.37;;;24.40;99.90;;;;;;5035416;28;20255;-82
2022/08/18 11:45:15;;;;;;;6.70;4.57;;;23.50;99.90;;;;;;5036366;28;20288;-81
2022/08/18 11:47:58;;;;;;;6.63;4.93;;;23.80;99.90;;;;;;5036728;28;20167;-82
2022/08/18 11:50:30;;;;;;;5.13;3.90;;;23.60;99.90;;;;;;5035128;28;20261;-81
2022/08/18 11:53:10;;;;;;;6.17;4.07;;;23.50;99.90;;;;;;5034839;28;20206;-82
2022/08/18 11:55:37;;;;;;;5.87;4.00;;;23.70;99.90;;;;;;5036331;28;20193;-82
2022/08/18 11:58:04;;;;;;;6.63;3.70;;;23.70;99.90;;;;;;5035070;28;20180;-82
2022/08/18 12:00:52;;;;;;;5.30;4.03;;;24.30;99.90;;;;;;5040230;28;20255;-83
2022/08/18 12:03:44;;;;;;;4.17;3.77;;;24.30;99.90;;;;;;5035235;28;20627;-82
2022/08/18 12:06:24;;;;;;;5.57;4.00;;;24.30;99.90;;;;;;5039317;28;20176;-82
2022/08/18 12:08:59;;;;;;;5.17;4.67;;;24.10;99.90;;;;;;5038570;28;20202;-82
2022/08/18 12:11:31;;;;;;;6.20;3.97;;;23.50;99.90;;;;;;5039202;28;20209;-82
2022/08/18 12:14:00;;;;;;;4.47;4.07;;;23.40;99.90;;;;;;5040902;28;20163;-81
2022/08/18 12:16:42;;;;;;;4.70;4.30;;;23.20;99.90;;;;;;5040647;28;20172;-82
2022/08/18 12:19:11;;;;;;;4.70;3.67;;;23.10;99.90;;;;;;5039674;28;20233;-82
2022/08/18 12:22:14;;;;;;;5.27;4.53;;;23.20;99.90;;;;;;5037855;28;20209;-81
2022/08/18 12:24:40;;;;;;;7.23;4.60;;;23.30;99.90;;;;;;5039797;28;20686;-81
2022/08/18 12:27:06;;;;;;;5.00;4.50;;;23.30;99.90;;;;;;5041525;28;20178;-82
2022/08/18 12:29:32;;;;;;;5.30;4.77;;;23.30;99.90;;;;;;5040253;28;20208;-81
2022/08/18 12:31:57;;;;;;;8.47;5.23;;;23.20;99.90;;;;;;5039392;28;20190;-81
2022/08/18 12:34:25;;;;;;;5.10;4.60;;;23.10;99.90;;;;;;5039485;28;20175;-81
2022/08/18 12:36:53;;;;;;;6.40;4.63;;;23.10;99.90;;;;;;5040307;28;20193;-81
2022/08/18 12:39:19;;;;;;;6.17;4.90;;;22.90;99.90;;;;;;5040009;28;20227;-82
2022/08/18 12:41:45;;;;;;;7.37;4.90;;;22.60;99.90;;;;;;5038902;28;20198;-82
2022/08/18 12:44:11;;;;;;;5.93;5.23;;;22.50;99.90;;;;;;5037724;28;20257;-81
2022/08/18 12:46:38;;;;;;;9.33;5.20;;;22.40;99.90;;;;;;5038436;28;20190;-82
2022/08/18 12:49:06;;;;;;;5.90;4.57;;;22.40;99.90;;;;;;5039940;28;20207;-82
2022/08/18 12:51:31;;;;;;;5.50;5.00;;;22.30;99.90;;;;;;5038999;28;20743;-82
2022/08/18 12:53:57;;;;;;;6.50;5.40;;;22.30;99.90;;;;;;5040550;28;20176;-82
2022/08/18 12:56:30;;;;;;;7.33;5.17;;;22.20;99.90;;;;;;5039412;28;20639;-83
2022/08/18 12:59:01;;;;;;;5.70;5.20;;;22.20;99.90;;;;;;5038668;28;20209;-80
2022/08/18 13:01:28;;;;;;;6.60;5.80;;;22.10;99.90;;;;;;5039781;28;20202;-81
2022/08/18 13:03:54;;;;;;;7.63;5.40;;;22.10;99.90;;;;;;5040813;28;20588;-82
2022/08/18 13:06:21;;;;;;;6.10;5.00;;;22.00;99.90;;;;;;5038995;28;20238;-82
2022/08/18 13:08:49;;;;;;;6.10;5.53;;;22.00;99.90;;;;;;5040158;28;20222;-82
2022/08/18 13:11:16;;;;;;;6.57;5.10;;;22.00;99.90;;;;;;5039480;28;20214;-81
2022/08/18 13:13:43;;;;;;;6.30;5.70;;;22.10;99.90;;;;;;5041916;28;20589;-82
2022/08/18 13:16:10;;;;;;;6.70;6.00;;;22.00;99.90;;;;;;5047835;28;20250;-82
2022/08/18 13:18:37;;;;;;;6.73;5.43;;;22.00;99.90;;;;;;5057332;28;20200;-82
2022/08/18 13:21:04;;;;;;;6.00;5.40;;;22.10;99.90;;;;;;5050146;28;20234;-81
2022/08/18 13:23:30;;;;;;;5.90;5.10;;;22.10;99.90;;;;;;5040861;28;20181;-81
2022/08/18 13:25:58;;;;;;;5.50;5.00;;;22.10;99.90;;;;;;5038785;28;20545;-81
2022/08/18 13:28:25;;;;;;;7.37;5.07;;;22.10;99.90;;;;;;5038454;28;20269;-81